sensor_id;sensor_type;location;lat;lon;timestamp;pressure;altitude;pressure_sealevel;temperature;humidity
74778;BME280;63298;53.164;8.610;2023-03-01T00:01:29;103395.38;;;1.55;62.36
74778;BME280;63298;53.164;8.610;2023-03-01T00:03:56;103388.72;;;1.59;62.33
74778;BME280;63298;53.164;8.610;2023-03-01T00:06:22;103386.00;;;1.59;62.23
74778;BME280;63298;53.164;8.610;2023-03-01T00:08:48;103383.09;;;1.62;62.06
74778;BME280;63298;53.164;8.610;2023-03-01T00:11:31;103386.88;;;1.59;62.08
74778;BME280;63298;53.164;8.610;2023-03-01T00:13:59;103388.53;;;1.62;62.11
74778;BME280;63298;53.164;8.610;2023-03-01T00:16:27;103381.44;;;1.59;62.19
74778;BME280;63298;53.164;8.610;2023-03-01T00:18:54;103386.00;;;1.59;61.85
74778;BME280;63298;53.164;8.610;2023-03-01T00:21:23;103369.16;;;1.54;61.90
74778;BME280;63298;53.164;8.610;2023-03-01T00:23:49;103372.75;;;1.54;62.19
74778;BME280;63298;53.164;8.610;2023-03-01T00:26:16;103369.53;;;1.49;62.30
74778;BME280;63298;53.164;8.610;2023-03-01T00:28:42;103368.66;;;1.49;62.42
74778;BME280;63298;53.164;8.610;2023-03-01T00:31:14;103366.06;;;1.47;61.93
74778;BME280;63298;53.164;8.610;2023-03-01T00:33:39;103368.13;;;1.44;61.95
74778;BME280;63298;53.164;8.610;2023-03-01T00:36:05;103368.13;;;1.44;62.55
74778;BME280;63298;53.164;8.610;2023-03-01T00:38:34;103362.94;;;1.41;62.30
74778;BME280;63298;53.164;8.610;2023-03-01T00:41:08;103366.75;;;1.38;62.56
74778;BME280;63298;53.164;8.610;2023-03-01T00:43:34;103369.34;;;1.40;62.83
74778;BME280;63298;53.164;8.610;2023-03-01T00:46:02;103369.59;;;1.37;62.44
74778;BME280;63298;53.164;8.610;2023-03-01T00:48:27;103361.63;;;1.34;62.26
74778;BME280;63298;53.164;8.610;2023-03-01T00:50:53;103359.06;;;1.32;62.49
74778;BME280;63298;53.164;8.610;2023-03-01T00:53:18;103363.63;;;1.32;62.79
74778;BME280;63298;53.164;8.610;2023-03-01T00:55:44;103359.41;;;1.27;62.48
74778;BME280;63298;53.164;8.610;2023-03-01T00:58:09;103364.06;;;1.25;62.51
74778;BME280;63298;53.164;8.610;2023-03-01T01:00:34;103360.59;;;1.23;62.65
74778;BME280;63298;53.164;8.610;2023-03-01T01:03:00;103356.16;;;1.22;63.03
74778;BME280;63298;53.164;8.610;2023-03-01T01:05:25;103356.16;;;1.22;62.44
74778;BME280;63298;53.164;8.610;2023-03-01T01:07:50;103365.28;;;1.21;62.19
74778;BME280;63298;53.164;8.610;2023-03-01T01:10:16;103361.81;;;1.19;62.75
74778;BME280;63298;53.164;8.610;2023-03-01T01:12:41;103356.59;;;1.16;62.06
74778;BME280;63298;53.164;8.610;2023-03-01T01:15:07;103357.59;;;1.15;62.73
74778;BME280;63298;53.164;8.610;2023-03-01T01:17:32;103366.63;;;1.16;62.22
74778;BME280;63298;53.164;8.610;2023-03-01T01:19:58;103349.66;;;1.12;62.44
74778;BME280;63298;53.164;8.610;2023-03-01T01:22:23;103356.59;;;1.16;62.46
74778;BME280;63298;53.164;8.610;2023-03-01T01:24:48;103345.75;;;1.16;62.49
74778;BME280;63298;53.164;8.610;2023-03-01T01:27:13;103348.69;;;1.13;62.64
74778;BME280;63298;53.164;8.610;2023-03-01T01:29:39;103342.50;;;1.11;62.62
74778;BME280;63298;53.164;8.610;2023-03-01T01:32:04;103338.81;;;1.12;62.68
74778;BME280;63298;53.164;8.610;2023-03-01T01:34:30;103337.06;;;1.11;62.49
74778;BME280;63298;53.164;8.610;2023-03-01T01:36:55;103345.22;;;1.11;62.19
74778;BME280;63298;53.164;8.610;2023-03-01T01:39:21;103327.25;;;1.09;62.73
74778;BME280;63298;53.164;8.610;2023-03-01T01:41:47;103332.84;;;1.07;63.06
74778;BME280;63298;53.164;8.610;2023-03-01T01:44:17;103333.81;;;1.06;62.77
74778;BME280;63298;53.164;8.610;2023-03-01T01:49:18;103326.88;;;1.02;62.93
74778;BME280;63298;53.164;8.610;2023-03-01T01:51:45;103324.16;;;1.02;62.99
74778;BME280;63298;53.164;8.610;2023-03-01T01:54:21;103321.66;;;0.99;62.71
74778;BME280;63298;53.164;8.610;2023-03-01T01:56:55;103320.16;;;0.95;62.85
74778;BME280;63298;53.164;8.610;2023-03-01T01:59:22;103312.13;;;0.94;62.91
74778;BME280;63298;53.164;8.610;2023-03-01T02:01:48;103311.25;;;0.93;62.74
74778;BME280;63298;53.164;8.610;2023-03-01T02:04:14;103297.88;;;0.90;63.24
74778;BME280;63298;53.164;8.610;2023-03-01T02:06:51;103301.72;;;0.88;63.04
74778;BME280;63298;53.164;8.610;2023-03-01T02:09:20;103303.66;;;0.85;62.94
74778;BME280;63298;53.164;8.610;2023-03-01T02:11:47;103306.38;;;0.85;63.16
74778;BME280;63298;53.164;8.610;2023-03-01T02:14:14;103294.78;;;0.83;62.93
74778;BME280;63298;53.164;8.610;2023-03-01T02:16:40;103292.25;;;0.80;62.94
74778;BME280;63298;53.164;8.610;2023-03-01T02:19:07;103289.69;;;0.79;62.96
74778;BME280;63298;53.164;8.610;2023-03-01T02:21:37;103292.59;;;0.76;62.77
74778;BME280;63298;53.164;8.610;2023-03-01T02:24:24;103301.19;;;0.70;63.05
74778;BME280;63298;53.164;8.610;2023-03-01T02:26:55;103289.59;;;0.68;63.73
74778;BME280;63298;53.164;8.610;2023-03-01T02:29:22;103289.16;;;0.61;63.35
74778;BME280;63298;53.164;8.610;2023-03-01T02:31:49;103290.91;;;0.62;63.01
74778;BME280;63298;53.164;8.610;2023-03-01T02:34:18;103288.28;;;0.61;62.83
74778;BME280;63298;53.164;8.610;2023-03-01T02:36:52;103294.69;;;0.60;63.34
74778;BME280;63298;53.164;8.610;2023-03-01T02:39:23;103291.25;;;0.58;63.40
74778;BME280;63298;53.164;8.610;2023-03-01T02:41:52;103294.16;;;0.55;63.51
74778;BME280;63298;53.164;8.610;2023-03-01T02:44:20;103298.75;;;0.54;64.24
74778;BME280;63298;53.164;8.610;2023-03-01T02:46:51;103294.41;;;0.52;63.28
74778;BME280;63298;53.164;8.610;2023-03-01T02:57:19;103285.06;;;0.43;63.49
74778;BME280;63298;53.164;8.610;2023-03-01T02:59:45;103286.16;;;0.40;64.01
74778;BME280;63298;53.164;8.610;2023-03-01T03:02:29;103290.06;;;0.36;63.56
74778;BME280;63298;53.164;8.610;2023-03-01T03:04:54;103287.47;;;0.35;64.29
74778;BME280;63298;53.164;8.610;2023-03-01T03:07:20;103292.25;;;0.31;63.96
74778;BME280;63298;53.164;8.610;2023-03-01T03:09:45;103287.06;;;0.28;63.72
74778;BME280;63298;53.164;8.610;2023-03-01T03:12:10;103293.56;;;0.26;64.22
74778;BME280;63298;53.164;8.610;2023-03-01T03:14:36;103289.97;;;0.25;63.96
74778;BME280;63298;53.164;8.610;2023-03-01T03:17:01;103290.84;;;0.26;64.11
74778;BME280;63298;53.164;8.610;2023-03-01T03:19:26;103277.06;;;0.29;63.83
74778;BME280;63298;53.164;8.610;2023-03-01T03:21:52;103273.59;;;0.27;63.84
74778;BME280;63298;53.164;8.610;2023-03-01T03:24:17;103275.53;;;0.25;63.71
74778;BME280;63298;53.164;8.610;2023-03-01T03:26:42;103273.81;;;0.24;63.83
74778;BME280;63298;53.164;8.610;2023-03-01T03:29:08;103275.66;;;0.23;63.98
74778;BME280;63298;53.164;8.610;2023-03-01T03:31:33;103271.19;;;0.22;64.12
74778;BME280;63298;53.164;8.610;2023-03-01T03:33:59;103263.16;;;0.21;64.24
74778;BME280;63298;53.164;8.610;2023-03-01T03:36:24;103278.69;;;0.19;63.49
74778;BME280;63298;53.164;8.610;2023-03-01T03:38:50;103267.06;;;0.17;64.23
74778;BME280;63298;53.164;8.610;2023-03-01T03:41:16;103259.03;;;0.15;63.83
74778;BME280;63298;53.164;8.610;2023-03-01T03:43:43;103264.47;;;0.15;63.83
74778;BME280;63298;53.164;8.610;2023-03-01T03:46:10;103253.59;;;0.15;63.97
74778;BME280;63298;53.164;8.610;2023-03-01T03:48:38;103257.31;;;0.14;63.64
74778;BME280;63298;53.164;8.610;2023-03-01T03:51:05;103253.75;;;0.14;63.79
74778;BME280;63298;53.164;8.610;2023-03-01T03:53:30;103254.06;;;0.09;63.71
74778;BME280;63298;53.164;8.610;2023-03-01T03:55:55;103252.53;;;0.05;63.93
74778;BME280;63298;53.164;8.610;2023-03-01T03:58:23;103258.09;;;0.04;64.55
74778;BME280;63298;53.164;8.610;2023-03-01T04:00:52;103247.34;;;0.02;64.15
74778;BME280;63298;53.164;8.610;2023-03-01T04:03:19;103245.41;;;0.04;63.83
74778;BME280;63298;53.164;8.610;2023-03-01T04:05:45;103241.81;;;0.04;64.12
74778;BME280;63298;53.164;8.610;2023-03-01T04:08:11;103232.81;;;0.03;64.23
74778;BME280;63298;53.164;8.610;2023-03-01T04:10:44;103238.13;;;0.05;63.88
74778;BME280;63298;53.164;8.610;2023-03-01T04:13:11;103232.81;;;0.03;64.26
74778;BME280;63298;53.164;8.610;2023-03-01T04:15:38;103249.31;;;0.00;64.44
74778;BME280;63298;53.164;8.610;2023-03-01T04:18:03;103239.75;;;-0.06;64.47
74778;BME280;63298;53.164;8.610;2023-03-01T04:20:31;103237.13;;;-0.07;64.47
74778;BME280;63298;53.164;8.610;2023-03-01T04:23:04;103225.41;;;-0.08;64.41
74778;BME280;63298;53.164;8.610;2023-03-01T04:25:29;103234.53;;;-0.09;64.42
74778;BME280;63298;53.164;8.610;2023-03-01T04:27:54;103234.44;;;-0.07;64.90
74778;BME280;63298;53.164;8.610;2023-03-01T04:30:20;103228.22;;;-0.09;64.36
74778;BME280;63298;53.164;8.610;2023-03-01T04:32:45;103229.34;;;-0.12;64.38
74778;BME280;63298;53.164;8.610;2023-03-01T04:35:10;103235.63;;;-0.11;64.55
74778;BME280;63298;53.164;8.610;2023-03-01T04:37:36;103240.38;;;-0.15;64.47
74778;BME280;63298;53.164;8.610;2023-03-01T04:40:02;103230.63;;;-0.17;64.60
74778;BME280;63298;53.164;8.610;2023-03-01T04:42:28;103235.28;;;-0.19;64.45
74778;BME280;63298;53.164;8.610;2023-03-01T04:44:53;103228.25;;;-0.22;64.42
74778;BME280;63298;53.164;8.610;2023-03-01T04:47:18;103231.06;;;-0.23;64.68
74778;BME280;63298;53.164;8.610;2023-03-01T04:49:44;103225.75;;;-0.25;65.09
74778;BME280;63298;53.164;8.610;2023-03-01T04:52:09;103226.72;;;-0.26;64.94
74778;BME280;63298;53.164;8.610;2023-03-01T04:54:35;103224.13;;;-0.27;64.61
74778;BME280;63298;53.164;8.610;2023-03-01T04:57:02;103230.31;;;-0.25;65.03
74778;BME280;63298;53.164;8.610;2023-03-01T04:59:27;103223.16;;;-0.26;64.66
74778;BME280;63298;53.164;8.610;2023-03-01T05:01:54;103224.91;;;-0.25;64.92
74778;BME280;63298;53.164;8.610;2023-03-01T05:04:20;103220.44;;;-0.26;64.87
74778;BME280;63298;53.164;8.610;2023-03-01T05:06:45;103215.13;;;-0.28;64.86
74778;BME280;63298;53.164;8.610;2023-03-01T05:09:10;103210.88;;;-0.32;64.74
74778;BME280;63298;53.164;8.610;2023-03-01T05:11:36;103214.56;;;-0.33;64.81
74778;BME280;63298;53.164;8.610;2023-03-01T05:14:03;103214.66;;;-0.34;65.10
74778;BME280;63298;53.164;8.610;2023-03-01T05:16:29;103209.25;;;-0.34;64.96
74778;BME280;63298;53.164;8.610;2023-03-01T05:18:54;103202.13;;;-0.35;65.14
74778;BME280;63298;53.164;8.610;2023-03-01T05:21:20;103213.81;;;-0.35;65.33
74778;BME280;63298;53.164;8.610;2023-03-01T05:23:45;103215.75;;;-0.37;65.10
74778;BME280;63298;53.164;8.610;2023-03-01T05:26:10;103209.78;;;-0.42;65.02
74778;BME280;63298;53.164;8.610;2023-03-01T05:28:36;103216.09;;;-0.41;64.84
74778;BME280;63298;53.164;8.610;2023-03-01T05:31:01;103211.53;;;-0.41;64.90
74778;BME280;63298;53.164;8.610;2023-03-01T05:33:27;103215.22;;;-0.42;65.56
74778;BME280;63298;53.164;8.610;2023-03-01T05:35:53;103218.03;;;-0.44;65.32
74778;BME280;63298;53.164;8.610;2023-03-01T05:41:27;103203.91;;;-0.49;65.16
74778;BME280;63298;53.164;8.610;2023-03-01T05:43:53;103212.59;;;-0.44;65.13
74778;BME280;63298;53.164;8.610;2023-03-01T05:46:18;103218.91;;;-0.43;65.11
74778;BME280;63298;53.164;8.610;2023-03-01T05:48:43;103217.84;;;-0.40;65.06
74778;BME280;63298;53.164;8.610;2023-03-01T05:51:08;103221.50;;;-0.41;65.42
74778;BME280;63298;53.164;8.610;2023-03-01T05:53:34;103214.34;;;-0.43;65.55
74778;BME280;63298;53.164;8.610;2023-03-01T05:55:59;103209.25;;;-0.47;65.34
74778;BME280;63298;53.164;8.610;2023-03-01T05:58:24;103215.53;;;-0.47;65.43
74778;BME280;63298;53.164;8.610;2023-03-01T06:00:50;103224.63;;;-0.48;65.60
74778;BME280;63298;53.164;8.610;2023-03-01T06:03:16;103221.19;;;-0.50;65.58
74778;BME280;63298;53.164;8.610;2023-03-01T06:05:42;103226.47;;;-0.48;65.56
74778;BME280;63298;53.164;8.610;2023-03-01T06:08:10;103219.53;;;-0.52;65.55
74778;BME280;63298;53.164;8.610;2023-03-01T06:10:36;103221.38;;;-0.53;65.81
74778;BME280;63298;53.164;8.610;2023-03-01T06:13:01;103228.53;;;-0.52;65.34
74778;BME280;63298;53.164;8.610;2023-03-01T06:15:27;103232.31;;;-0.54;65.21
74778;BME280;63298;53.164;8.610;2023-03-01T06:17:54;103234.19;;;-0.55;65.77
74778;BME280;63298;53.164;8.610;2023-03-01T06:20:22;103226.91;;;-0.54;65.57
74778;BME280;63298;53.164;8.610;2023-03-01T06:22:48;103230.59;;;-0.55;65.77
74778;BME280;63298;53.164;8.610;2023-03-01T06:25:17;103237.75;;;-0.54;65.91
74778;BME280;63298;53.164;8.610;2023-03-01T06:27:43;103234.06;;;-0.53;65.73
74778;BME280;63298;53.164;8.610;2023-03-01T06:30:10;103232.22;;;-0.53;65.82
74778;BME280;63298;53.164;8.610;2023-03-01T06:32:37;103229.75;;;-0.56;65.57
74778;BME280;63298;53.164;8.610;2023-03-01T06:35:03;103233.31;;;-0.55;65.66
74778;BME280;63298;53.164;8.610;2023-03-01T06:37:29;103228.97;;;-0.58;65.96
74778;BME280;63298;53.164;8.610;2023-03-01T06:39:54;103228.00;;;-0.57;65.80
74778;BME280;63298;53.164;8.610;2023-03-01T06:42:19;103232.44;;;-0.56;65.76
74778;BME280;63298;53.164;8.610;2023-03-01T06:44:45;103233.41;;;-0.57;66.02
74778;BME280;63298;53.164;8.610;2023-03-01T06:47:10;103238.63;;;-0.54;65.43
74778;BME280;63298;53.164;8.610;2023-03-01T06:49:35;103233.09;;;-0.52;66.27
74778;BME280;63298;53.164;8.610;2023-03-01T06:52:01;103234.75;;;-0.50;65.88
74778;BME280;63298;53.164;8.610;2023-03-01T06:54:26;103230.06;;;-0.48;66.29
74778;BME280;63298;53.164;8.610;2023-03-01T06:56:51;103227.03;;;-0.43;65.96
74778;BME280;63298;53.164;8.610;2023-03-01T07:02:46;103223.03;;;-0.37;65.74
74778;BME280;63298;53.164;8.610;2023-03-01T07:05:12;103229.97;;;-0.33;65.74
74778;BME280;63298;53.164;8.610;2023-03-01T07:07:37;103242.13;;;-0.26;65.96
74778;BME280;63298;53.164;8.610;2023-03-01T07:10:02;103245.50;;;-0.23;65.68
74778;BME280;63298;53.164;8.610;2023-03-01T07:12:28;103245.06;;;-0.17;65.95
74778;BME280;63298;53.164;8.610;2023-03-01T07:14:53;103239.31;;;-0.12;65.50
74778;BME280;63298;53.164;8.610;2023-03-01T07:17:18;103247.03;;;-0.06;65.88
74778;BME280;63298;53.164;8.610;2023-03-01T07:19:46;103254.72;;;0.00;65.98
74778;BME280;63298;53.164;8.610;2023-03-01T07:22:11;103236.25;;;0.05;65.75
74778;BME280;63298;53.164;8.610;2023-03-01T07:24:37;103237.56;;;0.12;65.74
74778;BME280;63298;53.164;8.610;2023-03-01T07:27:02;103238.88;;;0.19;65.83
74778;BME280;63298;53.164;8.610;2023-03-01T07:29:28;103242.84;;;0.26;65.93
74778;BME280;63298;53.164;8.610;2023-03-01T07:31:53;103250.56;;;0.32;65.42
74778;BME280;63298;53.164;8.610;2023-03-01T07:34:18;103251.09;;;0.37;65.64
74778;BME280;63298;53.164;8.610;2023-03-01T07:36:44;103250.66;;;0.43;65.97
74778;BME280;63298;53.164;8.610;2023-03-01T07:39:10;103246.63;;;0.49;65.85
74778;BME280;63298;53.164;8.610;2023-03-01T07:41:35;103249.00;;;0.54;65.81
74778;BME280;63298;53.164;8.610;2023-03-01T07:44:01;103250.50;;;0.58;65.90
74778;BME280;63298;53.164;8.610;2023-03-01T07:46:29;103250.06;;;0.64;65.99
74778;BME280;63298;53.164;8.610;2023-03-01T07:48:54;103255.78;;;0.72;66.27
74778;BME280;63298;53.164;8.610;2023-03-01T07:51:19;103243.72;;;0.76;66.28
74778;BME280;63298;53.164;8.610;2023-03-01T07:53:46;103243.50;;;0.79;65.91
74778;BME280;63298;53.164;8.610;2023-03-01T07:56:13;103240.03;;;0.77;66.67
74778;BME280;63298;53.164;8.610;2023-03-01T07:58:40;103237.06;;;0.80;66.56
74778;BME280;63298;53.164;8.610;2023-03-01T08:01:08;103236.97;;;0.81;67.20
74778;BME280;63298;53.164;8.610;2023-03-01T08:03:34;103236.72;;;0.84;67.24
74778;BME280;63298;53.164;8.610;2023-03-01T08:06:01;103236.25;;;0.91;66.76
74778;BME280;63298;53.164;8.610;2023-03-01T08:08:27;103223.97;;;0.98;66.13
74778;BME280;63298;53.164;8.610;2023-03-01T08:10:56;103225.00;;;1.08;66.47
74778;BME280;63298;53.164;8.610;2023-03-01T08:13:22;103220.72;;;1.16;66.34
74778;BME280;63298;53.164;8.610;2023-03-01T08:15:48;103221.22;;;1.21;66.75
74778;BME280;63298;53.164;8.610;2023-03-01T08:18:14;103223.22;;;1.30;66.13
74778;BME280;63298;53.164;8.610;2023-03-01T08:20:39;103216.22;;;1.39;66.15
74778;BME280;63298;53.164;8.610;2023-03-01T08:23:08;103209.94;;;1.50;65.74
74778;BME280;63298;53.164;8.610;2023-03-01T08:25:33;103200.94;;;1.60;65.73
74778;BME280;63298;53.164;8.610;2023-03-01T08:27:59;103215.66;;;1.69;65.59
74778;BME280;63298;53.164;8.610;2023-03-01T08:30:24;103216.94;;;1.76;65.92
74778;BME280;63298;53.164;8.610;2023-03-01T08:32:50;103214.81;;;1.80;65.87
74778;BME280;63298;53.164;8.610;2023-03-01T08:35:16;103211.50;;;1.87;65.72
74778;BME280;63298;53.164;8.610;2023-03-01T08:37:41;103205.34;;;1.96;65.79
74778;BME280;63298;53.164;8.610;2023-03-01T08:40:07;103211.13;;;2.03;65.44
74778;BME280;63298;53.164;8.610;2023-03-01T08:42:33;103204.81;;;2.13;65.36
74778;BME280;63298;53.164;8.610;2023-03-01T08:44:59;103206.69;;;2.24;65.64
74778;BME280;63298;53.164;8.610;2023-03-01T08:47:24;103203.09;;;2.35;65.45
74778;BME280;63298;53.164;8.610;2023-03-01T08:49:50;103205.81;;;2.46;65.53
74778;BME280;63298;53.164;8.610;2023-03-01T08:52:15;103197.88;;;2.54;65.01
74778;BME280;63298;53.164;8.610;2023-03-01T08:54:41;103197.22;;;2.61;65.02
74778;BME280;63298;53.164;8.610;2023-03-01T08:57:06;103186.56;;;2.70;65.37
74778;BME280;63298;53.164;8.610;2023-03-01T08:59:31;103184.91;;;2.78;65.07
74778;BME280;63298;53.164;8.610;2023-03-01T09:01:57;103187.13;;;2.84;65.09
74778;BME280;63298;53.164;8.610;2023-03-01T09:04:22;103189.75;;;2.86;65.48
74778;BME280;63298;53.164;8.610;2023-03-01T09:06:47;103184.41;;;2.84;66.22
74778;BME280;63298;53.164;8.610;2023-03-01T09:09:17;103192.09;;;2.90;66.26
74778;BME280;63298;53.164;8.610;2023-03-01T09:11:43;103187.59;;;3.00;65.61
74778;BME280;63298;53.164;8.610;2023-03-01T09:14:08;103173.88;;;3.12;64.94
74778;BME280;63298;53.164;8.610;2023-03-01T09:16:33;103184.00;;;3.21;65.49
74778;BME280;63298;53.164;8.610;2023-03-01T09:18:59;103173.84;;;3.23;65.41
74778;BME280;63298;53.164;8.610;2023-03-01T09:21:24;103180.50;;;3.30;65.15
74778;BME280;63298;53.164;8.610;2023-03-01T09:23:49;103180.69;;;3.38;65.23
74778;BME280;63298;53.164;8.610;2023-03-01T09:26:18;103190.81;;;3.47;65.01
74778;BME280;63298;53.164;8.610;2023-03-01T09:28:43;103180.25;;;3.54;64.88
74778;BME280;63298;53.164;8.610;2023-03-01T09:31:09;103176.81;;;3.61;64.93
74778;BME280;63298;53.164;8.610;2023-03-01T09:33:34;103171.59;;;3.69;65.06
74778;BME280;63298;53.164;8.610;2023-03-01T09:36:05;103179.66;;;3.80;65.15
74778;BME280;63298;53.164;8.610;2023-03-01T09:38:31;103181.19;;;3.94;64.66
74778;BME280;63298;53.164;8.610;2023-03-01T09:40:57;103179.38;;;4.04;64.65
74778;BME280;63298;53.164;8.610;2023-03-01T09:43:44;103183.31;;;4.21;64.73
74778;BME280;63298;53.164;8.610;2023-03-01T09:46:13;103171.09;;;4.25;64.12
74778;BME280;63298;53.164;8.610;2023-03-01T09:48:44;103174.72;;;4.35;63.32
74778;BME280;63298;53.164;8.610;2023-03-01T09:51:19;103170.84;;;4.28;61.88
74778;BME280;63298;53.164;8.610;2023-03-01T09:53:48;103156.56;;;4.24;62.74
74778;BME280;63298;53.164;8.610;2023-03-01T09:59:44;103187.03;;;4.60;61.57
74778;BME280;63298;53.164;8.610;2023-03-01T10:05:09;103182.63;;;4.68;61.99
74778;BME280;63298;53.164;8.610;2023-03-01T10:07:50;103187.66;;;4.83;61.02
74778;BME280;63298;53.164;8.610;2023-03-01T10:10:38;103159.16;;;4.85;60.00
74778;BME280;63298;53.164;8.610;2023-03-01T10:13:17;103163.63;;;4.96;58.80
74778;BME280;63298;53.164;8.610;2023-03-01T10:15:50;103139.16;;;4.94;60.34
74778;BME280;63298;53.164;8.610;2023-03-01T10:18:19;103164.22;;;5.09;60.48
74778;BME280;63298;53.164;8.610;2023-03-01T10:21:08;103156.88;;;5.09;60.51
74778;BME280;63298;53.164;8.610;2023-03-01T10:23:37;103152.69;;;5.25;60.46
74778;BME280;63298;53.164;8.610;2023-03-01T10:26:12;103131.53;;;5.17;60.85
74778;BME280;63298;53.164;8.610;2023-03-01T10:28:53;103159.44;;;5.40;60.37
74778;BME280;63298;53.164;8.610;2023-03-01T10:31:25;103156.81;;;5.48;60.18
74778;BME280;63298;53.164;8.610;2023-03-01T10:33:52;103156.94;;;5.65;60.64
74778;BME280;63298;53.164;8.610;2023-03-01T10:36:17;103150.56;;;5.75;59.96
74778;BME280;63298;53.164;8.610;2023-03-01T10:38:56;103144.66;;;5.79;59.94
74778;BME280;63298;53.164;8.610;2023-03-01T10:41:24;103151.88;;;5.90;60.09
74778;BME280;63298;53.164;8.610;2023-03-01T10:43:52;103143.75;;;5.98;60.33
74778;BME280;63298;53.164;8.610;2023-03-01T10:46:27;103127.50;;;5.96;59.95
74778;BME280;63298;53.164;8.610;2023-03-01T10:51:43;103127.22;;;6.17;60.81
74778;BME280;63298;53.164;8.610;2023-03-01T10:54:21;103116.13;;;6.19;61.18
74778;BME280;63298;53.164;8.610;2023-03-01T10:56:58;103115.50;;;6.25;60.46
74778;BME280;63298;53.164;8.610;2023-03-01T10:59:35;103137.78;;;6.39;61.20
74778;BME280;63298;53.164;8.610;2023-03-01T11:02:28;103133.63;;;6.35;60.58
74778;BME280;63298;53.164;8.610;2023-03-01T11:07:22;103110.38;;;6.39;61.40
74778;BME280;63298;53.164;8.610;2023-03-01T11:09:48;103137.13;;;6.55;61.15
74778;BME280;63298;53.164;8.610;2023-03-01T11:12:14;103147.44;;;6.61;61.53
74778;BME280;63298;53.164;8.610;2023-03-01T11:14:55;103137.34;;;6.62;61.69
74778;BME280;63298;53.164;8.610;2023-03-01T11:17:29;103126.94;;;6.65;62.14
74778;BME280;63298;53.164;8.610;2023-03-01T11:22:47;103109.84;;;6.71;62.74
74778;BME280;63298;53.164;8.610;2023-03-01T11:25:14;103103.44;;;6.80;62.34
74778;BME280;63298;53.164;8.610;2023-03-01T11:27:43;103121.25;;;6.94;63.16
74778;BME280;63298;53.164;8.610;2023-03-01T11:32:56;103111.03;;;7.04;61.21
74778;BME280;63298;53.164;8.610;2023-03-01T11:35:26;103128.81;;;7.18;61.19
74778;BME280;63298;53.164;8.610;2023-03-01T11:40:40;103114.28;;;7.25;62.11
74778;BME280;63298;53.164;8.610;2023-03-01T11:51:45;103093.66;;;7.39;61.70
74778;BME280;63298;53.164;8.610;2023-03-01T11:56:43;103099.78;;;7.59;61.28
74778;BME280;63298;53.164;8.610;2023-03-01T12:02:22;103109.53;;;7.79;61.42
74778;BME280;63298;53.164;8.610;2023-03-01T12:08:27;103109.56;;;7.87;60.68
74778;BME280;63298;53.164;8.610;2023-03-01T12:11:07;103081.34;;;7.77;61.17
74778;BME280;63298;53.164;8.610;2023-03-01T12:16:38;103088.28;;;7.89;60.61
74778;BME280;63298;53.164;8.610;2023-03-01T12:38:33;103066.78;;;8.18;60.21
74778;BME280;63298;53.164;8.610;2023-03-01T12:46:59;103055.94;;;8.17;59.66
74778;BME280;63298;53.164;8.610;2023-03-01T12:49:55;103043.00;;;8.09;59.64
74778;BME280;63298;53.164;8.610;2023-03-01T12:52:41;103041.16;;;8.18;60.27
74778;BME280;63298;53.164;8.610;2023-03-01T12:55:24;103047.94;;;8.32;59.43
74778;BME280;63298;53.164;8.610;2023-03-01T12:58:00;103035.81;;;8.16;59.47
74778;BME280;63298;53.164;8.610;2023-03-01T13:03:09;103047.78;;;8.33;59.69
74778;BME280;63298;53.164;8.610;2023-03-01T13:05:45;103037.97;;;8.39;60.12
74778;BME280;63298;53.164;8.610;2023-03-01T13:08:36;103029.41;;;8.50;59.90
74778;BME280;63298;53.164;8.610;2023-03-01T13:11:09;103029.59;;;8.56;59.67
74778;BME280;63298;53.164;8.610;2023-03-01T13:13:37;103013.09;;;8.48;59.46
74778;BME280;63298;53.164;8.610;2023-03-01T13:16:28;103016.00;;;8.47;58.70
74778;BME280;63298;53.164;8.610;2023-03-01T13:19:30;103013.59;;;8.60;60.10
74778;BME280;63298;53.164;8.610;2023-03-01T13:21:55;103006.72;;;8.64;59.83
74778;BME280;63298;53.164;8.610;2023-03-01T13:24:33;103003.78;;;8.74;59.48
74778;BME280;63298;53.164;8.610;2023-03-01T13:29:50;103008.44;;;8.97;59.78
74778;BME280;63298;53.164;8.610;2023-03-01T13:32:22;102999.31;;;9.05;59.90
74778;BME280;63298;53.164;8.610;2023-03-01T13:34:50;102999.66;;;9.10;59.35
74778;BME280;63298;53.164;8.610;2023-03-01T13:37:21;102989.13;;;9.14;59.44
74778;BME280;63298;53.164;8.610;2023-03-01T13:39:50;102974.16;;;9.24;59.55
74778;BME280;63298;53.164;8.610;2023-03-01T13:42:37;102972.41;;;9.23;58.97
74778;BME280;63298;53.164;8.610;2023-03-01T13:45:34;102986.03;;;9.25;58.36
74778;BME280;63298;53.164;8.610;2023-03-01T13:48:18;102983.59;;;9.30;58.71
74778;BME280;63298;53.164;8.610;2023-03-01T13:50:51;102970.38;;;9.25;58.82
74778;BME280;63298;53.164;8.610;2023-03-01T13:53:22;102968.81;;;9.23;58.58
74778;BME280;63298;53.164;8.610;2023-03-01T13:55:57;102957.28;;;9.19;58.13
74778;BME280;63298;53.164;8.610;2023-03-01T14:03:22;102955.00;;;9.39;58.85
74778;BME280;63298;53.164;8.610;2023-03-01T14:08:26;102942.44;;;9.36;58.09
74778;BME280;63298;53.164;8.610;2023-03-01T14:19:36;102936.78;;;9.30;58.69
74778;BME280;63298;53.164;8.610;2023-03-01T14:24:30;102925.88;;;9.44;59.20
74778;BME280;63298;53.164;8.610;2023-03-01T14:26:56;102924.31;;;9.50;58.42
74778;BME280;63298;53.164;8.610;2023-03-01T14:29:26;102931.66;;;9.58;58.85
74778;BME280;63298;53.164;8.610;2023-03-01T14:31:52;102909.69;;;9.49;58.34
74778;BME280;63298;53.164;8.610;2023-03-01T14:34:20;102904.63;;;9.61;58.38
74778;BME280;63298;53.164;8.610;2023-03-01T14:36:47;102906.53;;;9.61;58.27
74778;BME280;63298;53.164;8.610;2023-03-01T14:39:19;102902.75;;;9.62;58.35
74778;BME280;63298;53.164;8.610;2023-03-01T14:41:45;102903.13;;;9.50;58.21
74778;BME280;63298;53.164;8.610;2023-03-01T14:44:22;102908.88;;;9.41;57.57
74778;BME280;63298;53.164;8.610;2023-03-01T14:46:52;102911.63;;;9.41;58.67
74778;BME280;63298;53.164;8.610;2023-03-01T14:49:27;102906.44;;;9.46;58.50
74778;BME280;63298;53.164;8.610;2023-03-01T14:52:00;102904.44;;;9.32;57.41